sensor_id;sensor_type;location;lat;lon;timestamp;pressure;altitude;pressure_sealevel;temperature;humidity
33161;BME280;19522;45.656;11.302;2023-04-09T00:00:22;98675.34;;;8.77;87.56
33161;BME280;19522;45.656;11.302;2023-04-09T00:02:48;98659.44;;;8.65;87.72
33161;BME280;19522;45.656;11.302;2023-04-09T00:05:13;98664.34;;;8.62;87.47
33161;BME280;19522;45.656;11.302;2023-04-09T00:07:39;98622.59;;;8.48;87.57
33161;BME280;19522;45.656;11.302;2023-04-09T00:10:05;98648.78;;;8.64;87.80
33161;BME280;19522;45.656;11.302;2023-04-09T00:12:31;98626.94;;;8.73;87.04
33161;BME280;19522;45.656;11.302;2023-04-09T00:14:56;98653.34;;;8.80;86.31
33161;BME280;19522;45.656;11.302;2023-04-09T00:17:22;98660.44;;;8.72;87.04
33161;BME280;19522;45.656;11.302;2023-04-09T00:19:47;98648.28;;;8.68;87.56
33161;BME280;19522;45.656;11.302;2023-04-09T00:22:13;98645.41;;;8.70;87.66
33161;BME280;19522;45.656;11.302;2023-04-09T00:24:39;98581.28;;;8.37;87.97
33161;BME280;19522;45.656;11.302;2023-04-09T00:27:05;98653.47;;;8.86;87.95
33161;BME280;19522;45.656;11.302;2023-04-09T00:29:31;98669.56;;;8.96;87.74
33161;BME280;19522;45.656;11.302;2023-04-09T00:31:56;98668.34;;;9.07;87.28
33161;BME280;19522;45.656;11.302;2023-04-09T00:34:22;98666.09;;;9.19;86.59
33161;BME280;19522;45.656;11.302;2023-04-09T00:36:47;98591.94;;;8.47;86.69
33161;BME280;19522;45.656;11.302;2023-04-09T00:39:13;98668.34;;;8.99;86.98
33161;BME280;19522;45.656;11.302;2023-04-09T00:41:38;98675.91;;;9.20;86.72
33161;BME280;19522;45.656;11.302;2023-04-09T00:44:04;98670.88;;;9.17;86.45
33161;BME280;19522;45.656;11.302;2023-04-09T00:46:30;98672.72;;;9.16;86.64
33161;BME280;19522;45.656;11.302;2023-04-09T00:48:56;98672.22;;;9.13;86.70
33161;BME280;19522;45.656;11.302;2023-04-09T00:51:22;98673.28;;;8.95;86.48
33161;BME280;19522;45.656;11.302;2023-04-09T00:53:48;98657.88;;;8.87;86.75
33161;BME280;19522;45.656;11.302;2023-04-09T00:56:15;98675.28;;;9.18;85.56
33161;BME280;19522;45.656;11.302;2023-04-09T00:58:41;98650.63;;;8.88;85.34
33161;BME280;19522;45.656;11.302;2023-04-09T01:01:07;98682.06;;;9.06;84.61
33161;BME280;19522;45.656;11.302;2023-04-09T01:03:33;98685.97;;;8.95;84.89
33161;BME280;19522;45.656;11.302;2023-04-09T01:06:04;98654.72;;;8.67;85.22
33161;BME280;19522;45.656;11.302;2023-04-09T01:11:24;98695.59;;;9.06;85.15
33161;BME280;19522;45.656;11.302;2023-04-09T01:14:05;98699.88;;;8.92;85.05
33161;BME280;19522;45.656;11.302;2023-04-09T01:16:34;98690.56;;;8.86;85.26
33161;BME280;19522;45.656;11.302;2023-04-09T01:21:49;98712.25;;;8.69;86.56
33161;BME280;19522;45.656;11.302;2023-04-09T01:24:30;98710.53;;;8.52;87.65
33161;BME280;19522;45.656;11.302;2023-04-09T01:27:07;98696.34;;;8.50;88.91
33161;BME280;19522;45.656;11.302;2023-04-09T01:29:37;98707.47;;;8.38;90.64
33161;BME280;19522;45.656;11.302;2023-04-09T01:32:05;98718.00;;;8.66;88.62
33161;BME280;19522;45.656;11.302;2023-04-09T01:34:32;98704.78;;;8.71;87.11
33161;BME280;19522;45.656;11.302;2023-04-09T01:37:00;98704.09;;;8.61;87.57
33161;BME280;19522;45.656;11.302;2023-04-09T01:39:26;98687.88;;;8.53;87.64
33161;BME280;19522;45.656;11.302;2023-04-09T01:41:52;98711.03;;;8.88;87.55
33161;BME280;19522;45.656;11.302;2023-04-09T01:44:19;98705.09;;;8.93;85.62
33161;BME280;19522;45.656;11.302;2023-04-09T01:46:46;98711.91;;;8.89;84.90
33161;BME280;19522;45.656;11.302;2023-04-09T01:49:13;98711.91;;;8.89;84.12
33161;BME280;19522;45.656;11.302;2023-04-09T01:51:40;98708.53;;;8.79;84.91
33161;BME280;19522;45.656;11.302;2023-04-09T01:54:06;98713.75;;;8.72;85.86
33161;BME280;19522;45.656;11.302;2023-04-09T01:56:46;98712.56;;;8.83;86.02
33161;BME280;19522;45.656;11.302;2023-04-09T01:59:12;98705.81;;;8.87;85.25
33161;BME280;19522;45.656;11.302;2023-04-09T02:01:45;98720.66;;;8.91;85.17
33161;BME280;19522;45.656;11.302;2023-04-09T02:04:32;98716.63;;;8.87;84.88
33161;BME280;19522;45.656;11.302;2023-04-09T02:07:20;98697.00;;;8.77;84.62
33161;BME280;19522;45.656;11.302;2023-04-09T02:09:48;98709.53;;;8.69;84.83
33161;BME280;19522;45.656;11.302;2023-04-09T02:12:17;98713.44;;;8.75;85.04
33161;BME280;19522;45.656;11.302;2023-04-09T02:14:45;98688.72;;;8.62;84.94
33161;BME280;19522;45.656;11.302;2023-04-09T02:17:12;98718.16;;;8.73;84.81
33161;BME280;19522;45.656;11.302;2023-04-09T02:19:42;98725.09;;;8.67;85.40
33161;BME280;19522;45.656;11.302;2023-04-09T02:22:09;98721.03;;;8.71;85.67
33161;BME280;19522;45.656;11.302;2023-04-09T02:24:35;98697.31;;;8.40;86.81
33161;BME280;19522;45.656;11.302;2023-04-09T02:27:01;98716.16;;;8.75;86.25
33161;BME280;19522;45.656;11.302;2023-04-09T02:29:27;98718.84;;;8.75;86.27
33161;BME280;19522;45.656;11.302;2023-04-09T02:31:53;98722.91;;;8.71;85.61
33161;BME280;19522;45.656;11.302;2023-04-09T02:34:19;98724.09;;;8.60;86.42
33161;BME280;19522;45.656;11.302;2023-04-09T02:36:45;98698.47;;;8.30;86.81
33161;BME280;19522;45.656;11.302;2023-04-09T02:39:10;98698.47;;;8.30;87.25
33161;BME280;19522;45.656;11.302;2023-04-09T02:41:36;98702.88;;;8.31;87.17
33161;BME280;19522;45.656;11.302;2023-04-09T02:44:01;98722.72;;;8.48;86.92
33161;BME280;19522;45.656;11.302;2023-04-09T02:46:27;98719.84;;;8.57;87.29
33161;BME280;19522;45.656;11.302;2023-04-09T02:48:52;98685.63;;;8.40;87.03
33161;BME280;19522;45.656;11.302;2023-04-09T02:51:18;98720.72;;;8.58;86.94
33161;BME280;19522;45.656;11.302;2023-04-09T02:53:44;98721.19;;;8.70;86.15
33161;BME280;19522;45.656;11.302;2023-04-09T02:56:10;98724.09;;;8.68;85.25
33161;BME280;19522;45.656;11.302;2023-04-09T02:58:35;98703.97;;;8.54;85.42
33161;BME280;19522;45.656;11.302;2023-04-09T03:01:01;98716.31;;;8.57;85.89
33161;BME280;19522;45.656;11.302;2023-04-09T03:03:26;98714.78;;;8.63;86.23
33161;BME280;19522;45.656;11.302;2023-04-09T03:05:52;98708.53;;;8.79;83.20
33161;BME280;19522;45.656;11.302;2023-04-09T03:08:18;98710.03;;;8.81;81.84
33161;BME280;19522;45.656;11.302;2023-04-09T03:10:43;98716.47;;;8.80;81.24
33161;BME280;19522;45.656;11.302;2023-04-09T03:13:14;98709.38;;;8.54;83.18
33161;BME280;19522;45.656;11.302;2023-04-09T03:15:40;98714.91;;;8.45;83.65
33161;BME280;19522;45.656;11.302;2023-04-09T03:18:06;98689.69;;;8.27;84.41
33161;BME280;19522;45.656;11.302;2023-04-09T03:20:31;98719.31;;;8.46;85.06
33161;BME280;19522;45.656;11.302;2023-04-09T03:22:57;98692.28;;;8.54;84.19
33161;BME280;19522;45.656;11.302;2023-04-09T03:25:23;98692.97;;;8.48;84.13
33161;BME280;19522;45.656;11.302;2023-04-09T03:27:48;98709.19;;;8.64;84.63
33161;BME280;19522;45.656;11.302;2023-04-09T03:30:14;98725.94;;;8.76;83.80
33161;BME280;19522;45.656;11.302;2023-04-09T03:32:40;98732.19;;;8.52;84.51
33161;BME280;19522;45.656;11.302;2023-04-09T03:35:06;98729.66;;;8.50;85.33
33161;BME280;19522;45.656;11.302;2023-04-09T03:37:32;98732.88;;;8.54;84.73
33161;BME280;19522;45.656;11.302;2023-04-09T03:39:57;98732.03;;;8.53;85.06
33161;BME280;19522;45.656;11.302;2023-04-09T03:42:23;98720.00;;;8.39;85.23
33161;BME280;19522;45.656;11.302;2023-04-09T03:44:48;98730.34;;;8.52;85.51
33161;BME280;19522;45.656;11.302;2023-04-09T03:47:14;98731.84;;;8.55;84.93
33161;BME280;19522;45.656;11.302;2023-04-09T03:49:40;98729.84;;;8.57;83.98
33161;BME280;19522;45.656;11.302;2023-04-09T03:52:06;98730.53;;;8.51;84.41
33161;BME280;19522;45.656;11.302;2023-04-09T03:54:31;98740.28;;;8.43;85.00
33161;BME280;19522;45.656;11.302;2023-04-09T03:56:57;98741.34;;;8.51;85.00
33161;BME280;19522;45.656;11.302;2023-04-09T03:59:23;98705.28;;;8.34;84.54
33161;BME280;19522;45.656;11.302;2023-04-09T04:01:48;98739.66;;;8.66;84.62
33161;BME280;19522;45.656;11.302;2023-04-09T04:04:15;98740.50;;;8.58;84.75
33161;BME280;19522;45.656;11.302;2023-04-09T04:06:40;98690.53;;;8.28;84.62
33161;BME280;19522;45.656;11.302;2023-04-09T04:09:06;98703.25;;;8.36;84.53
33161;BME280;19522;45.656;11.302;2023-04-09T04:11:31;98743.38;;;8.57;84.51
33161;BME280;19522;45.656;11.302;2023-04-09T04:13:57;98740.81;;;8.47;84.38
33161;BME280;19522;45.656;11.302;2023-04-09T04:16:22;98728.97;;;8.48;84.35
33161;BME280;19522;45.656;11.302;2023-04-09T04:18:48;98750.31;;;8.60;84.17
33161;BME280;19522;45.656;11.302;2023-04-09T04:21:15;98747.09;;;8.64;84.20
33161;BME280;19522;45.656;11.302;2023-04-09T04:23:41;98730.13;;;8.46;84.04
33161;BME280;19522;45.656;11.302;2023-04-09T04:26:09;98718.78;;;8.34;83.97
33161;BME280;19522;45.656;11.302;2023-04-09T04:28:39;98745.72;;;8.52;83.81
33161;BME280;19522;45.656;11.302;2023-04-09T04:31:09;98689.66;;;7.94;84.47
33161;BME280;19522;45.656;11.302;2023-04-09T04:33:39;98749.13;;;8.62;83.31
33161;BME280;19522;45.656;11.302;2023-04-09T04:36:09;98747.94;;;8.56;83.32
33161;BME280;19522;45.656;11.302;2023-04-09T04:38:35;98747.19;;;8.30;84.43
33161;BME280;19522;45.656;11.302;2023-04-09T04:41:07;98759.38;;;8.34;84.93
33161;BME280;19522;45.656;11.302;2023-04-09T04:43:32;98757.69;;;8.24;85.56
33161;BME280;19522;45.656;11.302;2023-04-09T04:45:58;98757.50;;;8.26;85.91
33161;BME280;19522;45.656;11.302;2023-04-09T04:48:24;98747.38;;;8.45;84.84
33161;BME280;19522;45.656;11.302;2023-04-09T04:51:00;98762.31;;;8.49;85.00
33161;BME280;19522;45.656;11.302;2023-04-09T04:53:26;98733.13;;;8.09;86.04
33161;BME280;19522;45.656;11.302;2023-04-09T04:55:52;98767.16;;;8.37;85.76
33161;BME280;19522;45.656;11.302;2023-04-09T04:58:21;98772.22;;;8.23;85.92
33161;BME280;19522;45.656;11.302;2023-04-09T05:00:47;98770.28;;;7.99;87.31
33161;BME280;19522;45.656;11.302;2023-04-09T05:03:13;98775.50;;;7.92;88.56
33161;BME280;19522;45.656;11.302;2023-04-09T05:05:39;98775.47;;;7.84;88.92
33161;BME280;19522;45.656;11.302;2023-04-09T05:08:04;98771.25;;;7.82;89.49
33161;BME280;19522;45.656;11.302;2023-04-09T05:10:31;98749.34;;;7.24;91.19
33161;BME280;19522;45.656;11.302;2023-04-09T05:12:59;98755.81;;;7.13;91.79
33161;BME280;19522;45.656;11.302;2023-04-09T05:15:25;98780.56;;;7.53;91.04
33161;BME280;19522;45.656;11.302;2023-04-09T05:17:51;98760.31;;;7.57;90.01
33161;BME280;19522;45.656;11.302;2023-04-09T05:20:17;98772.88;;;7.74;89.40
33161;BME280;19522;45.656;11.302;2023-04-09T05:22:43;98777.97;;;7.77;89.39
33161;BME280;19522;45.656;11.302;2023-04-09T05:25:08;98715.34;;;7.56;88.95
33161;BME280;19522;45.656;11.302;2023-04-09T05:27:35;98781.41;;;7.88;88.62
33161;BME280;19522;45.656;11.302;2023-04-09T05:30:00;98755.03;;;7.82;88.53
33161;BME280;19522;45.656;11.302;2023-04-09T05:32:26;98756.06;;;7.89;87.97
33161;BME280;19522;45.656;11.302;2023-04-09T05:34:52;98723.41;;;7.82;87.42
33161;BME280;19522;45.656;11.302;2023-04-09T05:37:17;98783.88;;;8.24;86.71
33161;BME280;19522;45.656;11.302;2023-04-09T05:39:43;98766.28;;;8.20;86.88
33161;BME280;19522;45.656;11.302;2023-04-09T05:42:08;98777.63;;;8.23;87.14
33161;BME280;19522;45.656;11.302;2023-04-09T05:44:34;98763.72;;;8.18;86.94
33161;BME280;19522;45.656;11.302;2023-04-09T05:47:00;98791.38;;;8.38;86.74
33161;BME280;19522;45.656;11.302;2023-04-09T05:49:26;98793.44;;;8.53;85.55
33161;BME280;19522;45.656;11.302;2023-04-09T05:51:53;98767.19;;;8.45;84.44
33161;BME280;19522;45.656;11.302;2023-04-09T05:54:18;98786.19;;;8.62;84.43
33161;BME280;19522;45.656;11.302;2023-04-09T05:56:44;98760.78;;;8.46;84.50
33161;BME280;19522;45.656;11.302;2023-04-09T05:59:10;98781.59;;;8.62;84.52
33161;BME280;19522;45.656;11.302;2023-04-09T06:01:36;98791.44;;;8.71;84.71
33161;BME280;19522;45.656;11.302;2023-04-09T06:04:01;98799.59;;;8.88;84.45
33161;BME280;19522;45.656;11.302;2023-04-09T06:06:27;98789.94;;;9.02;83.86
33161;BME280;19522;45.656;11.302;2023-04-09T06:08:52;98768.94;;;9.04;83.23
33161;BME280;19522;45.656;11.302;2023-04-09T06:11:18;98759.25;;;9.18;82.05
33161;BME280;19522;45.656;11.302;2023-04-09T06:13:43;98791.69;;;9.59;81.17
33161;BME280;19522;45.656;11.302;2023-04-09T06:16:09;98793.00;;;9.72;79.48
33161;BME280;19522;45.656;11.302;2023-04-09T06:18:35;98762.16;;;9.73;77.78
33161;BME280;19522;45.656;11.302;2023-04-09T06:21:02;98797.47;;;10.04;75.69
33161;BME280;19522;45.656;11.302;2023-04-09T06:23:28;98792.66;;;10.14;75.14
33161;BME280;19522;45.656;11.302;2023-04-09T06:25:53;98782.16;;;10.11;73.88
33161;BME280;19522;45.656;11.302;2023-04-09T06:28:19;98795.16;;;10.24;73.56
33161;BME280;19522;45.656;11.302;2023-04-09T06:30:45;98776.72;;;10.11;73.59
33161;BME280;19522;45.656;11.302;2023-04-09T06:33:11;98799.22;;;10.28;73.27
33161;BME280;19522;45.656;11.302;2023-04-09T06:35:36;98793.44;;;10.32;71.67
33161;BME280;19522;45.656;11.302;2023-04-09T06:38:02;98779.06;;;10.23;71.20
33161;BME280;19522;45.656;11.302;2023-04-09T06:40:27;98798.16;;;10.38;70.66
33161;BME280;19522;45.656;11.302;2023-04-09T06:42:53;98740.13;;;10.07;70.38
33161;BME280;19522;45.656;11.302;2023-04-09T06:45:18;98751.63;;;10.18;69.73
33161;BME280;19522;45.656;11.302;2023-04-09T06:47:44;98795.19;;;10.56;68.81
33161;BME280;19522;45.656;11.302;2023-04-09T06:50:09;98782.31;;;10.73;68.43
33161;BME280;19522;45.656;11.302;2023-04-09T06:52:35;98798.19;;;11.07;67.57
33161;BME280;19522;45.656;11.302;2023-04-09T06:55:00;98800.78;;;11.24;63.29
33161;BME280;19522;45.656;11.302;2023-04-09T06:57:26;98795.72;;;11.36;62.79
33161;BME280;19522;45.656;11.302;2023-04-09T06:59:51;98794.97;;;11.42;62.52
33161;BME280;19522;45.656;11.302;2023-04-09T07:02:17;98795.34;;;11.24;62.42
33161;BME280;19522;45.656;11.302;2023-04-09T07:04:42;98801.06;;;11.44;62.39
33161;BME280;19522;45.656;11.302;2023-04-09T07:07:08;98797.31;;;11.30;61.02
33161;BME280;19522;45.656;11.302;2023-04-09T07:09:33;98803.03;;;11.50;61.46
33161;BME280;19522;45.656;11.302;2023-04-09T07:11:59;98808.03;;;11.62;59.27
33161;BME280;19522;45.656;11.302;2023-04-09T07:14:25;98798.25;;;11.52;58.61
33161;BME280;19522;45.656;11.302;2023-04-09T07:16:50;98792.56;;;11.47;59.32
33161;BME280;19522;45.656;11.302;2023-04-09T07:19:16;98787.25;;;11.31;59.98
33161;BME280;19522;45.656;11.302;2023-04-09T07:21:41;98791.94;;;10.84;60.73
33161;BME280;19522;45.656;11.302;2023-04-09T07:24:07;98810.22;;;10.90;61.53
33161;BME280;19522;45.656;11.302;2023-04-09T07:26:33;98806.06;;;10.56;60.73
33161;BME280;19522;45.656;11.302;2023-04-09T07:28:58;98812.19;;;11.19;58.66
33161;BME280;19522;45.656;11.302;2023-04-09T07:31:24;98788.06;;;11.54;59.09
33161;BME280;19522;45.656;11.302;2023-04-09T07:33:49;98803.56;;;11.99;56.63
33161;BME280;19522;45.656;11.302;2023-04-09T07:36:15;98799.69;;;11.48;57.24
33161;BME280;19522;45.656;11.302;2023-04-09T07:38:40;98767.91;;;10.72;57.55
33161;BME280;19522;45.656;11.302;2023-04-09T07:41:06;98807.50;;;10.90;58.19
33161;BME280;19522;45.656;11.302;2023-04-09T07:43:34;98809.25;;;10.83;59.73
33161;BME280;19522;45.656;11.302;2023-04-09T07:46:00;98814.16;;;10.87;59.06
33161;BME280;19522;45.656;11.302;2023-04-09T07:48:25;98809.28;;;11.21;59.42
33161;BME280;19522;45.656;11.302;2023-04-09T07:50:52;98786.97;;;10.87;58.16
33161;BME280;19522;45.656;11.302;2023-04-09T07:53:17;98818.28;;;10.98;58.70
33161;BME280;19522;45.656;11.302;2023-04-09T07:55:43;98815.03;;;10.80;58.22
33161;BME280;19522;45.656;11.302;2023-04-09T07:58:09;98794.25;;;10.87;57.13
33161;BME280;19522;45.656;11.302;2023-04-09T08:00:34;98811.78;;;10.84;57.34
33161;BME280;19522;45.656;11.302;2023-04-09T08:03:00;98814.81;;;10.89;57.30
33161;BME280;19522;45.656;11.302;2023-04-09T08:05:27;98783.22;;;10.88;56.36
33161;BME280;19522;45.656;11.302;2023-04-09T08:07:53;98802.31;;;10.57;56.28
33161;BME280;19522;45.656;11.302;2023-04-09T08:10:18;98817.88;;;10.63;56.70
33161;BME280;19522;45.656;11.302;2023-04-09T08:12:46;98815.97;;;10.32;57.85
33161;BME280;19522;45.656;11.302;2023-04-09T08:15:12;98792.53;;;10.48;56.18
33161;BME280;19522;45.656;11.302;2023-04-09T08:17:38;98821.00;;;10.75;56.08
33161;BME280;19522;45.656;11.302;2023-04-09T08:20:04;98819.25;;;10.59;56.60
33161;BME280;19522;45.656;11.302;2023-04-09T08:22:30;98821.97;;;10.82;56.40
33161;BME280;19522;45.656;11.302;2023-04-09T08:24:56;98814.41;;;10.46;56.15
33161;BME280;19522;45.656;11.302;2023-04-09T08:27:23;98823.50;;;10.62;55.58
33161;BME280;19522;45.656;11.302;2023-04-09T08:29:49;98818.94;;;10.54;55.63
33161;BME280;19522;45.656;11.302;2023-04-09T08:32:14;98822.34;;;10.79;56.17
33161;BME280;19522;45.656;11.302;2023-04-09T08:34:40;98828.75;;;10.86;54.84
33161;BME280;19522;45.656;11.302;2023-04-09T08:37:06;98827.09;;;11.23;55.02
33161;BME280;19522;45.656;11.302;2023-04-09T08:39:32;98815.06;;;11.86;54.03
33161;BME280;19522;45.656;11.302;2023-04-09T08:41:58;98800.63;;;11.85;53.00
33161;BME280;19522;45.656;11.302;2023-04-09T08:44:27;98797.94;;;12.00;51.43
33161;BME280;19522;45.656;11.302;2023-04-09T08:46:53;98808.09;;;12.43;51.83
33161;BME280;19522;45.656;11.302;2023-04-09T08:49:19;98809.31;;;12.41;50.74
33161;BME280;19522;45.656;11.302;2023-04-09T08:51:49;98816.66;;;12.40;51.39
33161;BME280;19522;45.656;11.302;2023-04-09T08:54:16;98800.72;;;12.59;51.63
33161;BME280;19522;45.656;11.302;2023-04-09T08:56:44;98809.81;;;12.29;49.99
33161;BME280;19522;45.656;11.302;2023-04-09T08:59:09;98799.09;;;12.28;49.67
33161;BME280;19522;45.656;11.302;2023-04-09T09:01:35;98792.50;;;12.37;50.40
33161;BME280;19522;45.656;11.302;2023-04-09T09:04:04;98815.97;;;12.38;49.22
33161;BME280;19522;45.656;11.302;2023-04-09T09:06:40;98806.06;;;12.89;50.21
33161;BME280;19522;45.656;11.302;2023-04-09T09:09:12;98800.34;;;12.62;48.95
33161;BME280;19522;45.656;11.302;2023-04-09T09:11:40;98781.78;;;12.94;48.87
33161;BME280;19522;45.656;11.302;2023-04-09T09:14:14;98794.63;;;13.22;47.92
33161;BME280;19522;45.656;11.302;2023-04-09T09:16:42;98799.44;;;12.98;48.95
33161;BME280;19522;45.656;11.302;2023-04-09T09:19:09;98781.38;;;13.40;47.98
33161;BME280;19522;45.656;11.302;2023-04-09T09:21:35;98757.00;;;12.89;47.10
33161;BME280;19522;45.656;11.302;2023-04-09T09:24:01;98787.66;;;13.41;48.38
33161;BME280;19522;45.656;11.302;2023-04-09T09:26:40;98782.13;;;13.98;47.63
33161;BME280;19522;45.656;11.302;2023-04-09T09:29:06;98785.63;;;13.50;47.29
33161;BME280;19522;45.656;11.302;2023-04-09T09:31:53;98787.56;;;13.56;48.30
33161;BME280;19522;45.656;11.302;2023-04-09T09:34:20;98779.91;;;13.45;47.71
33161;BME280;19522;45.656;11.302;2023-04-09T09:36:47;98777.34;;;13.15;48.58
33161;BME280;19522;45.656;11.302;2023-04-09T09:39:13;98768.91;;;13.38;48.88
33161;BME280;19522;45.656;11.302;2023-04-09T09:41:42;98787.75;;;13.54;48.02
33161;BME280;19522;45.656;11.302;2023-04-09T09:44:09;98784.41;;;13.31;47.46
33161;BME280;19522;45.656;11.302;2023-04-09T09:46:38;98779.63;;;13.68;49.68
33161;BME280;19522;45.656;11.302;2023-04-09T09:49:05;98769.06;;;13.93;47.29
33161;BME280;19522;45.656;11.302;2023-04-09T09:51:32;98768.72;;;14.10;45.98
33161;BME280;19522;45.656;11.302;2023-04-09T09:53:58;98780.03;;;13.36;47.39
33161;BME280;19522;45.656;11.302;2023-04-09T09:56:29;98780.72;;;13.17;47.89
33161;BME280;19522;45.656;11.302;2023-04-09T10:01:37;98762.06;;;13.42;46.92
33161;BME280;19522;45.656;11.302;2023-04-09T10:04:05;98770.28;;;13.84;48.06
33161;BME280;19522;45.656;11.302;2023-04-09T10:06:34;98770.69;;;13.81;46.65
33161;BME280;19522;45.656;11.302;2023-04-09T10:09:03;98769.97;;;14.07;47.30
33161;BME280;19522;45.656;11.302;2023-04-09T10:11:31;98763.81;;;13.56;47.23
33161;BME280;19522;45.656;11.302;2023-04-09T10:13:57;98765.56;;;13.64;47.07
33161;BME280;19522;45.656;11.302;2023-04-09T10:16:26;98766.59;;;13.98;47.71
33161;BME280;19522;45.656;11.302;2023-04-09T10:18:56;98768.22;;;13.86;47.20
33161;BME280;19522;45.656;11.302;2023-04-09T10:21:58;98759.38;;;13.84;47.81
33161;BME280;19522;45.656;11.302;2023-04-09T10:24:19;98739.91;;;13.94;46.46
33161;BME280;19522;45.656;11.302;2023-04-09T10:26:45;98763.25;;;14.10;47.54
33161;BME280;19522;45.656;11.302;2023-04-09T10:29:13;98756.41;;;14.27;47.03
33161;BME280;19522;45.656;11.302;2023-04-09T10:34:18;98749.72;;;13.81;47.73
33161;BME280;19522;45.656;11.302;2023-04-09T10:36:49;98755.41;;;13.51;47.86
33161;BME280;19522;45.656;11.302;2023-04-09T10:39:17;98757.09;;;13.52;47.17
33161;BME280;19522;45.656;11.302;2023-04-09T10:41:43;98736.38;;;13.36;48.34
33161;BME280;19522;45.656;11.302;2023-04-09T10:44:21;98750.47;;;13.68;47.70
33161;BME280;19522;45.656;11.302;2023-04-09T10:46:47;98754.91;;;13.69;47.86
33161;BME280;19522;45.656;11.302;2023-04-09T10:49:17;98750.41;;;13.33;48.01
33161;BME280;19522;45.656;11.302;2023-04-09T10:51:56;98740.56;;;12.82;48.93
33161;BME280;19522;45.656;11.302;2023-04-09T10:59:35;98747.13;;;13.09;48.26
33161;BME280;19522;45.656;11.302;2023-04-09T11:02:01;98757.06;;;12.96;48.29
33161;BME280;19522;45.656;11.302;2023-04-09T11:04:40;98741.47;;;12.89;48.06
33161;BME280;19522;45.656;11.302;2023-04-09T11:07:14;98738.56;;;12.47;48.98
33161;BME280;19522;45.656;11.302;2023-04-09T11:09:40;98754.28;;;12.45;51.02
33161;BME280;19522;45.656;11.302;2023-04-09T11:12:06;98750.94;;;12.28;51.20
33161;BME280;19522;45.656;11.302;2023-04-09T11:14:32;98755.47;;;12.21;51.96
33161;BME280;19522;45.656;11.302;2023-04-09T11:16:58;98751.66;;;12.15;51.66
33161;BME280;19522;45.656;11.302;2023-04-09T11:19:23;98761.88;;;12.13;51.37
33161;BME280;19522;45.656;11.302;2023-04-09T11:21:49;98765.28;;;12.37;50.65
33161;BME280;19522;45.656;11.302;2023-04-09T11:24:17;98769.16;;;12.28;51.01
33161;BME280;19522;45.656;11.302;2023-04-09T11:26:42;98774.81;;;12.11;52.09
33161;BME280;19522;45.656;11.302;2023-04-09T11:29:08;98777.00;;;12.01;57.85
33161;BME280;19522;45.656;11.302;2023-04-09T11:31:35;98766.94;;;11.87;64.97
33161;BME280;19522;45.656;11.302;2023-04-09T11:34:01;98763.78;;;11.53;72.49
33161;BME280;19522;45.656;11.302;2023-04-09T11:36:27;98801.63;;;11.40;76.01
33161;BME280;19522;45.656;11.302;2023-04-09T11:38:53;98795.78;;;11.13;76.76
33161;BME280;19522;45.656;11.302;2023-04-09T11:41:45;98796.97;;;10.87;82.49
33161;BME280;19522;45.656;11.302;2023-04-09T11:44:11;98778.09;;;10.47;78.06
33161;BME280;19522;45.656;11.302;2023-04-09T11:46:40;98768.47;;;10.36;75.18
33161;BME280;19522;45.656;11.302;2023-04-09T11:49:06;98791.59;;;10.55;72.67
33161;BME280;19522;45.656;11.302;2023-04-09T11:51:32;98795.41;;;10.46;69.93
33161;BME280;19522;45.656;11.302;2023-04-09T11:54:04;98794.31;;;10.55;70.87
33161;BME280;19522;45.656;11.302;2023-04-09T11:56:30;98795.75;;;10.74;70.93
33161;BME280;19522;45.656;11.302;2023-04-09T11:58:57;98798.03;;;10.86;70.53
33161;BME280;19522;45.656;11.302;2023-04-09T12:01:22;98796.19;;;11.01;69.19
33161;BME280;19522;45.656;11.302;2023-04-09T12:03:52;98793.59;;;11.08;69.99
33161;BME280;19522;45.656;11.302;2023-04-09T12:06:20;98789.31;;;11.14;68.57
33161;BME280;19522;45.656;11.302;2023-04-09T12:08:51;98767.72;;;11.12;67.80
33161;BME280;19522;45.656;11.302;2023-04-09T12:11:16;98777.66;;;11.73;67.99
33161;BME280;19522;45.656;11.302;2023-04-09T12:13:42;98780.56;;;11.57;63.25
33161;BME280;19522;45.656;11.302;2023-04-09T12:16:11;98780.72;;;11.70;63.15
33161;BME280;19522;45.656;11.302;2023-04-09T12:18:36;98785.53;;;11.83;62.50
33161;BME280;19522;45.656;11.302;2023-04-09T12:21:02;98778.88;;;11.85;61.56
33161;BME280;19522;45.656;11.302;2023-04-09T12:23:28;98779.25;;;11.97;63.64
33161;BME280;19522;45.656;11.302;2023-04-09T12:25:55;98776.25;;;11.77;62.76
33161;BME280;19522;45.656;11.302;2023-04-09T12:28:24;98763.91;;;11.96;64.13
33161;BME280;19522;45.656;11.302;2023-04-09T12:30:50;98764.97;;;12.10;65.13
33161;BME280;19522;45.656;11.302;2023-04-09T12:33:15;98766.06;;;12.31;62.84
33161;BME280;19522;45.656;11.302;2023-04-09T12:35:41;98752.94;;;12.20;57.01
33161;BME280;19522;45.656;11.302;2023-04-09T12:38:06;98765.69;;;12.34;58.53
33161;BME280;19522;45.656;11.302;2023-04-09T12:40:34;98761.75;;;12.22;58.15
33161;BME280;19522;45.656;11.302;2023-04-09T12:42:59;98763.06;;;12.26;58.11
33161;BME280;19522;45.656;11.302;2023-04-09T12:45:25;98767.19;;;12.22;58.37
33161;BME280;19522;45.656;11.302;2023-04-09T12:47:52;98767.03;;;12.08;57.81
33161;BME280;19522;45.656;11.302;2023-04-09T12:50:17;98761.59;;;12.08;55.36
33161;BME280;19522;45.656;11.302;2023-04-09T12:52:44;98700.16;;;11.69;57.42
33161;BME280;19522;45.656;11.302;2023-04-09T12:55:10;98759.34;;;11.97;56.54
33161;BME280;19522;45.656;11.302;2023-04-09T12:57:37;98760.63;;;12.16;58.02
33161;BME280;19522;45.656;11.302;2023-04-09T13:00:05;98744.63;;;12.28;57.35
33161;BME280;19522;45.656;11.302;2023-04-09T13:02:32;98759.28;;;12.27;56.46
33161;BME280;19522;45.656;11.302;2023-04-09T13:04:58;98761.25;;;12.33;58.85
33161;BME280;19522;45.656;11.302;2023-04-09T13:07:24;98753.63;;;12.43;57.76
33161;BME280;19522;45.656;11.302;2023-04-09T13:09:54;98750.66;;;12.60;57.54